Time;durP1;ratioP1;P1;durP2;ratioP2;P2;SDS_P1;SDS_P2;PMS_P1;PMS_P2;Temp;Humidity;BMP_temperature;BMP_pressure;BME280_temperature;BME280_humidity;BME280_pressure;Samples;Min_cycle;Max_cycle;Signal;HPM_P1;HPM_P2
2023/09/05 00:01:57;;;;;;;8.25;5.25;;;16.20;99.90;;;;;;5067011;28;20124;-71
2023/09/05 00:04:24;;;;;;;9.57;5.30;;;16.20;99.90;;;;;;5043928;28;20473;-71
2023/09/05 00:06:49;;;;;;;8.63;5.13;;;16.20;99.90;;;;;;5040875;28;20139;-71
2023/09/05 00:09:19;;;;;;;7.50;4.88;;;16.20;99.90;;;;;;5041737;28;20119;-71
2023/09/05 00:11:46;;;;;;;7.57;5.43;;;16.10;99.90;;;;;;5043704;28;20066;-72
2023/09/05 00:14:11;;;;;;;;;;;16.10;99.90;;;;;;5049521;28;20063;-71
2023/09/05 00:16:38;;;;;;;7.57;4.47;;;16.10;99.90;;;;;;5026759;28;19920;-71
2023/09/05 00:19:04;;;;;;;;;;;16.10;99.90;;;;;;5047166;28;20498;-71
2023/09/05 00:21:29;;;;;;;6.95;4.70;;;16.10;99.90;;;;;;5046307;28;19920;-70
2023/09/05 00:24:25;;;;;;;8.55;5.32;;;16.10;99.90;;;;;;5040034;28;20512;-71
2023/09/05 00:26:55;;;;;;;8.30;5.75;;;16.10;99.90;;;;;;5045879;28;20494;-71
2023/09/05 00:29:23;;;;;;;8.35;5.18;;;16.10;99.90;;;;;;5056684;28;20083;-75
2023/09/05 00:31:49;;;;;;;7.40;5.55;;;16.10;99.90;;;;;;5029686;28;20139;-70
2023/09/05 00:34:14;;;;;;;7.10;4.75;;;16.00;99.90;;;;;;5044433;28;20173;-71
2023/09/05 00:36:42;;;;;;;8.43;5.13;;;16.00;99.90;;;;;;5042692;28;20423;-71
2023/09/05 00:39:09;;;;;;;9.70;5.43;;;16.00;99.90;;;;;;5046455;28;20063;-71
2023/09/05 00:41:37;;;;;;;8.05;5.43;;;16.00;99.90;;;;;;5064604;28;20094;-71
2023/09/05 00:44:03;;;;;;;9.25;6.07;;;16.00;99.90;;;;;;5053925;28;20257;-71
2023/09/05 00:46:30;;;;;;;7.43;5.25;;;16.00;99.90;;;;;;5042809;28;20508;-70
2023/09/05 00:48:57;;;;;;;;;;;16.00;99.90;;;;;;5062300;28;20347;-70
2023/09/05 00:51:25;;;;;;;9.07;5.60;;;16.00;99.90;;;;;;5052128;28;19986;-70
2023/09/05 00:53:51;;;;;;;9.30;6.10;;;15.90;99.90;;;;;;5045741;28;20052;-70
2023/09/05 00:56:17;;;;;;;9.15;6.28;;;15.90;99.90;;;;;;5061128;28;20045;-71
2023/09/05 00:58:43;;;;;;;12.75;6.63;;;16.00;99.90;;;;;;5056075;28;20679;-70
2023/09/05 01:01:08;;;;;;;11.60;6.90;;;15.90;99.90;;;;;;5030124;28;20036;-70
2023/09/05 01:03:34;;;;;;;12.80;6.00;;;15.90;99.90;;;;;;5040592;28;20044;-71
2023/09/05 01:06:06;;;;;;;10.13;6.20;;;15.90;99.90;;;;;;5038459;28;20437;-70
2023/09/05 01:08:42;;;;;;;8.75;6.30;;;15.90;99.90;;;;;;5049642;28;20044;-71
2023/09/05 01:11:08;;;;;;;8.20;5.60;;;15.80;99.90;;;;;;5043211;28;20271;-71
2023/09/05 01:13:38;;;;;;;10.25;6.78;;;15.80;99.90;;;;;;5045403;28;20044;-70
2023/09/05 01:16:04;;;;;;;10.30;6.50;;;15.80;99.90;;;;;;5031644;28;20486;-72
2023/09/05 01:18:33;;;;;;;10.30;6.90;;;15.70;99.90;;;;;;5027363;28;20096;-70
2023/09/05 01:21:35;;;;;;;13.80;7.07;;;15.70;99.90;;;;;;5054941;28;20055;-70
2023/09/05 01:24:20;;;;;;;9.30;6.43;;;15.70;99.90;;;;;;5042444;28;20128;-76
2023/09/05 01:26:46;;;;;;;9.75;6.82;;;15.70;99.90;;;;;;5038736;28;20072;-70
2023/09/05 01:29:15;;;;;;;;;;;15.70;99.90;;;;;;5048590;28;20509;-70
2023/09/05 01:31:42;;;;;;;11.05;6.78;;;15.70;99.90;;;;;;5059471;28;19916;-70
2023/09/05 01:34:08;;;;;;;11.52;6.35;;;15.60;99.90;;;;;;5037482;28;20043;-70
2023/09/05 01:36:34;;;;;;;14.85;7.03;;;15.70;99.90;;;;;;5044633;28;20067;-70
2023/09/05 01:39:00;;;;;;;10.35;6.93;;;15.70;99.90;;;;;;5065205;28;20044;-70
2023/09/05 01:41:26;;;;;;;9.52;6.32;;;15.70;99.90;;;;;;5040929;28;20438;-70
2023/09/05 01:43:52;;;;;;;8.20;5.90;;;15.70;99.90;;;;;;5040564;28;20055;-70
2023/09/05 01:46:18;;;;;;;9.82;6.40;;;15.70;99.90;;;;;;5038313;28;20040;-70
2023/09/05 01:48:43;;;;;;;9.25;6.70;;;15.70;99.90;;;;;;5045750;28;20056;-70
2023/09/05 01:51:09;;;;;;;10.25;6.80;;;15.70;99.90;;;;;;5058050;28;20126;-70
2023/09/05 01:53:35;;;;;;;11.40;7.70;;;15.80;99.90;;;;;;5048944;28;20416;-70
2023/09/05 01:56:01;;;;;;;11.23;6.90;;;15.70;99.90;;;;;;5046354;28;20043;-71
2023/09/05 01:58:29;;;;;;;9.48;6.30;;;15.80;99.90;;;;;;5040408;28;20052;-70
2023/09/05 02:00:55;;;;;;;9.95;6.38;;;15.70;99.90;;;;;;5039527;28;20085;-70
2023/09/05 02:03:21;;;;;;;10.48;7.13;;;15.70;99.90;;;;;;5073438;28;20131;-70
2023/09/05 02:05:46;;;;;;;10.05;7.20;;;15.70;99.90;;;;;;5038838;28;20131;-70
2023/09/05 02:08:12;;;;;;;12.57;6.78;;;15.70;99.90;;;;;;5040498;28;20037;-70
2023/09/05 02:10:37;;;;;;;8.77;6.13;;;15.70;99.90;;;;;;5039230;28;20033;-70
2023/09/05 02:13:03;;;;;;;13.05;6.72;;;15.70;99.90;;;;;;5042857;28;20160;-70
2023/09/05 02:15:29;;;;;;;12.20;7.15;;;15.60;99.90;;;;;;5050196;28;20086;-70
2023/09/05 02:17:55;;;;;;;8.25;5.95;;;15.60;99.90;;;;;;5045048;28;20109;-70
2023/09/05 02:20:22;;;;;;;13.43;6.78;;;15.60;99.90;;;;;;5042366;28;20048;-70
2023/09/05 02:22:51;;;;;;;12.20;6.53;;;15.60;99.90;;;;;;5047493;28;20040;-70
2023/09/05 02:25:16;;;;;;;11.57;7.30;;;15.60;99.90;;;;;;5047661;28;20382;-70
2023/09/05 02:27:42;;;;;;;13.27;7.55;;;15.60;99.90;;;;;;5048289;28;20044;-70
2023/09/05 02:30:08;;;;;;;9.23;6.38;;;15.60;99.90;;;;;;5065557;28;20399;-70
2023/09/05 02:32:34;;;;;;;10.10;6.70;;;15.60;99.90;;;;;;5041137;28;20036;-70
2023/09/05 02:34:59;;;;;;;9.50;6.53;;;15.60;99.90;;;;;;5045805;28;20517;-70
2023/09/05 02:37:26;;;;;;;11.45;7.22;;;15.60;99.90;;;;;;5037331;28;20054;-70
2023/09/05 02:39:52;;;;;;;10.82;7.18;;;15.60;99.90;;;;;;5044439;28;20059;-70
2023/09/05 02:42:18;;;;;;;;;;;15.50;99.90;;;;;;5064700;28;20066;-70
2023/09/05 02:44:44;;;;;;;12.07;7.13;;;15.50;99.90;;;;;;5048428;28;20370;-70
2023/09/05 02:47:12;;;;;;;11.13;7.15;;;15.50;99.90;;;;;;5059040;28;20054;-70
2023/09/05 02:49:37;;;;;;;9.65;6.32;;;15.50;99.90;;;;;;5042489;28;20366;-70
2023/09/05 02:52:03;;;;;;;8.63;6.30;;;15.50;99.90;;;;;;5044146;28;20040;-70
2023/09/05 02:54:29;;;;;;;11.77;6.45;;;15.50;99.90;;;;;;5065429;28;20125;-70
2023/09/05 02:56:57;;;;;;;11.52;6.60;;;15.50;99.90;;;;;;5037482;28;20383;-70
2023/09/05 02:59:23;;;;;;;8.85;6.10;;;15.50;99.90;;;;;;5067948;28;20307;-70
2023/09/05 03:01:49;;;;;;;11.95;7.28;;;15.50;99.90;;;;;;5058080;28;20624;-70
2023/09/05 03:04:15;;;;;;;11.70;5.78;;;15.50;99.90;;;;;;5049948;28;20434;-70
2023/09/05 03:06:41;;;;;;;13.45;6.82;;;15.50;99.90;;;;;;5062604;28;20032;-70
2023/09/05 03:09:06;;;;;;;11.52;7.03;;;15.50;99.90;;;;;;5041558;28;20052;-70
2023/09/05 03:11:32;;;;;;;9.43;6.40;;;15.50;99.90;;;;;;5057472;28;20504;-70
2023/09/05 03:13:58;;;;;;;10.45;6.90;;;15.50;99.90;;;;;;5044543;28;20135;-70
2023/09/05 03:16:24;;;;;;;13.15;7.13;;;15.40;99.90;;;;;;5058486;28;20245;-70
2023/09/05 03:18:50;;;;;;;13.05;6.30;;;15.40;99.90;;;;;;5034592;28;20057;-70
2023/09/05 03:21:16;;;;;;;12.02;6.75;;;15.40;99.90;;;;;;5047981;28;20127;-70
2023/09/05 03:23:42;;;;;;;9.20;5.65;;;15.40;99.90;;;;;;5040465;28;20140;-70
2023/09/05 03:26:08;;;;;;;9.05;6.15;;;15.40;99.90;;;;;;5062038;28;20086;-70
2023/09/05 03:28:39;;;;;;;10.95;6.70;;;15.40;99.90;;;;;;5047662;28;20052;-70
2023/09/05 03:31:05;;;;;;;10.93;6.07;;;15.30;99.90;;;;;;5053538;28;20538;-70
2023/09/05 03:33:31;;;;;;;10.65;6.10;;;15.30;99.90;;;;;;5055735;28;20089;-70
2023/09/05 03:35:56;;;;;;;11.07;6.28;;;15.30;99.90;;;;;;5049609;28;20049;-70
2023/09/05 03:38:22;;;;;;;10.90;6.55;;;15.30;99.90;;;;;;5049324;28;20032;-70
2023/09/05 03:40:48;;;;;;;9.13;6.28;;;15.30;99.90;;;;;;5048492;28;20037;-70
2023/09/05 03:43:13;;;;;;;9.73;6.60;;;15.30;99.90;;;;;;5044908;28;20048;-70
2023/09/05 03:45:39;;;;;;;10.00;6.32;;;15.30;99.90;;;;;;5042548;28;20067;-70
2023/09/05 03:48:07;;;;;;;11.35;6.30;;;15.20;99.90;;;;;;5048564;28;20240;-70
2023/09/05 03:50:33;;;;;;;12.02;6.65;;;15.20;99.90;;;;;;5053172;28;20370;-70
2023/09/05 03:52:59;;;;;;;12.88;6.30;;;15.20;99.90;;;;;;5041487;28;20041;-70
2023/09/05 03:55:24;;;;;;;11.32;6.43;;;15.20;99.90;;;;;;5039870;28;20044;-70
2023/09/05 03:57:50;;;;;;;8.13;5.82;;;15.20;99.90;;;;;;5047093;28;20200;-70
2023/09/05 04:00:18;;;;;;;8.63;5.88;;;15.20;99.90;;;;;;5055457;28;20056;-70
2023/09/05 04:02:44;;;;;;;9.30;5.90;;;15.10;99.90;;;;;;5031763;28;20106;-70
2023/09/05 04:05:10;;;;;;;11.68;6.28;;;15.10;99.90;;;;;;5054849;28;20037;-70
2023/09/05 04:07:36;;;;;;;9.98;6.80;;;15.10;99.90;;;;;;5039605;28;20051;-70
2023/09/05 04:10:02;;;;;;;10.02;6.28;;;15.10;99.90;;;;;;5049745;28;20036;-71
2023/09/05 04:12:28;;;;;;;11.27;7.00;;;15.10;99.90;;;;;;5040948;28;20071;-70
2023/09/05 04:14:54;;;;;;;12.18;6.65;;;15.00;99.90;;;;;;5043504;28;20056;-70
2023/09/05 04:17:19;;;;;;;9.30;6.40;;;15.00;99.90;;;;;;5035223;28;20583;-70
2023/09/05 04:19:45;;;;;;;9.70;6.35;;;15.00;99.90;;;;;;5045281;28;20046;-70
2023/09/05 04:22:11;;;;;;;9.32;6.10;;;15.00;99.90;;;;;;5063362;28;20394;-70
2023/09/05 04:27:21;;;;;;;10.68;6.40;;;15.00;99.90;;;;;;5070575;28;20130;-69
2023/09/05 04:29:51;;;;;;;9.93;6.03;;;15.10;99.90;;;;;;5047717;28;20474;-69
2023/09/05 04:32:26;;;;;;;9.98;6.25;;;15.00;99.90;;;;;;5025503;28;20055;-69
2023/09/05 04:34:54;;;;;;;9.60;6.20;;;15.00;99.90;;;;;;5044614;28;20048;-69
2023/09/05 04:37:20;;;;;;;10.95;5.75;;;15.00;99.90;;;;;;5051721;28;20052;-69
2023/09/05 04:39:45;;;;;;;9.43;5.82;;;15.10;99.90;;;;;;5046728;28;20033;-69
2023/09/05 04:42:11;;;;;;;12.00;6.15;;;15.00;99.90;;;;;;5046852;28;20041;-69
2023/09/05 04:44:37;;;;;;;9.73;6.13;;;15.00;99.90;;;;;;5066769;28;20186;-69
2023/09/05 04:47:26;;;;;;;11.63;6.32;;;15.10;99.90;;;;;;5037485;28;20067;-69
2023/09/05 04:50:01;;;;;;;9.50;5.82;;;15.10;99.90;;;;;;5046841;28;20057;-70
2023/09/05 04:52:30;;;;;;;11.50;7.20;;;15.00;99.90;;;;;;5051547;28;20164;-69
2023/09/05 04:54:58;;;;;;;10.52;6.45;;;15.00;99.90;;;;;;5046071;28;20067;-70
2023/09/05 04:57:25;;;;;;;10.65;6.53;;;15.00;99.90;;;;;;5040140;28;20033;-70
2023/09/05 04:59:56;;;;;;;;;;;15.00;99.90;;;;;;5041522;28;20127;-70
2023/09/05 05:02:24;;;;;;;11.48;5.95;;;15.00;99.90;;;;;;5050090;28;19923;-70
2023/09/05 05:04:49;;;;;;;9.13;6.18;;;15.00;99.90;;;;;;5060962;28;20116;-70
2023/09/05 05:07:15;;;;;;;13.45;6.85;;;15.00;99.90;;;;;;5071334;28;20161;-70
2023/09/05 05:09:42;;;;;;;9.38;6.20;;;15.00;99.90;;;;;;5049116;28;20631;-70
2023/09/05 05:12:08;;;;;;;11.25;6.88;;;14.90;99.90;;;;;;5058417;28;20043;-70
2023/09/05 05:14:35;;;;;;;10.65;6.43;;;15.00;99.90;;;;;;5061656;28;20489;-70
2023/09/05 05:17:01;;;;;;;;;;;15.00;99.90;;;;;;5026500;28;20128;-70
2023/09/05 05:19:27;;;;;;;12.07;6.13;;;14.90;99.90;;;;;;5041563;28;19921;-70
2023/09/05 05:21:55;;;;;;;9.23;5.72;;;15.00;99.90;;;;;;5064773;28;20044;-71
2023/09/05 05:24:21;;;;;;;11.13;6.18;;;15.00;99.90;;;;;;5065670;28;20139;-70
2023/09/05 05:26:46;;;;;;;9.73;6.18;;;15.00;99.90;;;;;;5044343;28;20532;-70
2023/09/05 05:29:12;;;;;;;10.05;6.88;;;15.00;99.90;;;;;;5034008;28;20051;-71
2023/09/05 05:31:41;;;;;;;12.23;6.90;;;15.00;99.90;;;;;;5049896;28;20039;-71
2023/09/05 05:34:07;;;;;;;16.95;6.60;;;15.10;99.90;;;;;;5046902;28;20040;-71
2023/09/05 05:36:33;;;;;;;10.10;5.97;;;15.10;99.90;;;;;;5037255;28;20535;-71
2023/09/05 05:39:00;;;;;;;8.93;5.70;;;15.10;99.90;;;;;;5051869;28;20056;-71
2023/09/05 05:41:29;;;;;;;8.98;6.30;;;15.10;99.90;;;;;;5049301;28;20064;-71
2023/09/05 05:43:57;;;;;;;11.75;6.72;;;15.20;99.90;;;;;;5027709;28;20068;-71
2023/09/05 05:46:23;;;;;;;10.43;6.57;;;15.20;99.90;;;;;;5051298;28;20144;-71
2023/09/05 05:48:49;;;;;;;11.05;6.13;;;15.20;99.90;;;;;;5052784;28;20105;-72
2023/09/05 05:51:15;;;;;;;10.45;6.47;;;15.20;99.90;;;;;;5043534;28;20044;-73
2023/09/05 05:53:42;;;;;;;9.75;5.90;;;15.30;99.90;;;;;;5050193;28;20045;-71
2023/09/05 05:56:12;;;;;;;10.48;6.50;;;15.30;99.90;;;;;;5036166;28;20075;-71
2023/09/05 05:58:38;;;;;;;12.27;6.43;;;15.30;99.90;;;;;;5036816;28;20442;-70
2023/09/05 06:01:06;;;;;;;11.23;6.60;;;15.40;99.90;;;;;;5032183;28;20079;-70
2023/09/05 06:03:34;;;;;;;9.57;5.57;;;15.40;99.90;;;;;;5052518;28;20037;-70
2023/09/05 06:06:00;;;;;;;8.85;6.18;;;15.50;99.90;;;;;;5070314;28;20199;-71
2023/09/05 06:08:26;;;;;;;9.13;5.93;;;15.50;99.90;;;;;;5052216;28;20581;-71
2023/09/05 06:10:52;;;;;;;11.23;6.45;;;15.50;99.90;;;;;;5048788;28;20045;-71
2023/09/05 06:13:17;;;;;;;8.90;5.95;;;15.60;99.90;;;;;;5049245;28;20040;-70
2023/09/05 06:15:43;;;;;;;15.32;6.45;;;15.60;99.90;;;;;;5066891;28;20084;-71
2023/09/05 06:18:11;;;;;;;9.05;5.82;;;15.60;99.90;;;;;;5062151;28;20440;-71
2023/09/05 06:20:37;;;;;;;10.30;5.40;;;15.70;99.90;;;;;;5052698;28;20124;-71
2023/09/05 06:23:04;;;;;;;8.00;5.68;;;15.80;99.90;;;;;;5056052;28;20045;-71
2023/09/05 06:25:30;;;;;;;8.90;5.80;;;15.80;99.90;;;;;;5043912;28;20037;-71
2023/09/05 06:27:56;;;;;;;8.63;6.22;;;15.80;99.90;;;;;;5050934;28;20384;-70
2023/09/05 06:30:24;;;;;;;10.85;6.57;;;15.90;99.90;;;;;;5043993;28;20123;-71
2023/09/05 06:32:50;;;;;;;9.68;6.30;;;15.90;99.90;;;;;;5039634;28;20329;-70
2023/09/05 06:35:16;;;;;;;9.15;6.28;;;16.00;99.90;;;;;;5048736;28;20509;-71
2023/09/05 06:37:42;;;;;;;9.15;6.13;;;16.00;99.90;;;;;;5061414;28;20052;-71
2023/09/05 06:40:12;;;;;;;10.85;6.25;;;16.10;99.90;;;;;;5071375;28;20560;-71
2023/09/05 06:42:42;;;;;;;10.18;6.22;;;16.10;99.90;;;;;;5027577;28;20048;-70
2023/09/05 06:45:09;;;;;;;9.13;5.70;;;16.20;99.90;;;;;;5033101;28;20068;-70
2023/09/05 06:47:34;;;;;;;9.82;5.82;;;16.30;99.90;;;;;;5055245;28;20040;-71
2023/09/05 06:50:03;;;;;;;10.68;6.38;;;16.30;99.90;;;;;;5032768;28;20043;-71
2023/09/05 06:52:28;;;;;;;10.15;6.68;;;16.40;99.90;;;;;;5054720;28;20517;-71
2023/09/05 06:54:54;;;;;;;8.65;5.85;;;16.50;99.90;;;;;;5030868;28;20040;-71
2023/09/05 06:57:20;;;;;;;11.82;6.22;;;16.50;99.90;;;;;;5033896;28;20067;-70
2023/09/05 06:59:46;;;;;;;9.98;6.13;;;16.60;99.90;;;;;;5053732;28;20040;-71
2023/09/05 07:02:11;;;;;;;10.30;6.63;;;16.70;99.90;;;;;;5055310;28;20036;-70
2023/09/05 07:04:37;;;;;;;11.75;6.55;;;16.70;99.90;;;;;;5073954;28;20033;-71
2023/09/05 07:07:04;;;;;;;11.25;6.88;;;16.80;99.90;;;;;;5051585;28;20036;-71
2023/09/05 07:09:34;;;;;;;;;;;16.90;99.90;;;;;;5052312;28;20051;-70
2023/09/05 07:12:00;;;;;;;10.55;6.90;;;16.90;99.90;;;;;;5045002;28;19928;-70
2023/09/05 07:14:26;;;;;;;12.40;6.65;;;17.00;99.90;;;;;;5051685;28;20150;-70
2023/09/05 07:16:51;;;;;;;13.30;7.15;;;17.10;99.90;;;;;;5037771;28;20140;-71
2023/09/05 07:19:18;;;;;;;11.85;6.88;;;17.10;99.90;;;;;;5052447;28;20041;-71
2023/09/05 07:21:44;;;;;;;12.43;7.28;;;17.20;99.90;;;;;;5052795;28;20048;-70
2023/09/05 07:24:11;;;;;;;13.98;7.20;;;17.30;99.90;;;;;;5034643;28;20172;-70
2023/09/05 07:26:41;;;;;;;12.48;7.05;;;17.40;99.90;;;;;;5058307;28;20052;-71
2023/09/05 07:29:10;;;;;;;10.48;6.28;;;17.50;99.90;;;;;;5029082;28;20044;-70
2023/09/05 07:31:37;;;;;;;11.05;6.30;;;17.60;99.90;;;;;;5053730;28;20040;-71
2023/09/05 07:34:03;;;;;;;9.48;5.35;;;17.70;99.90;;;;;;5038800;28;20371;-71
2023/09/05 07:36:31;;;;;;;7.80;5.32;;;17.80;99.90;;;;;;5051942;28;20054;-71
2023/09/05 07:38:57;;;;;;;11.10;5.65;;;17.80;99.90;;;;;;5055803;28;20047;-70
2023/09/05 07:41:24;;;;;;;8.27;4.75;;;17.90;99.90;;;;;;5052025;28;20439;-70
2023/09/05 07:43:50;;;;;;;6.82;4.50;;;18.00;99.90;;;;;;5051716;28;20048;-70
2023/09/05 07:46:15;;;;;;;7.70;4.82;;;18.10;99.90;;;;;;5065976;28;20044;-71
2023/09/05 07:48:41;;;;;;;8.18;4.47;;;18.20;99.90;;;;;;5048162;28;20126;-70
2023/09/05 07:51:07;;;;;;;6.10;4.03;;;18.30;99.90;;;;;;5060789;28;20040;-71
2023/09/05 07:53:37;;;;;;;7.60;3.72;;;18.40;99.90;;;;;;5040030;28;20085;-71
2023/09/05 07:56:07;;;;;;;8.93;4.10;;;18.50;99.90;;;;;;5041710;28;20509;-71
2023/09/05 07:58:33;;;;;;;6.70;4.63;;;18.60;99.90;;;;;;5049066;28;20090;-71
2023/09/05 08:00:59;;;;;;;7.75;4.28;;;18.70;99.90;;;;;;5066512;28;20525;-71
2023/09/05 08:03:26;;;;;;;6.60;4.20;;;18.80;99.90;;;;;;5030233;28;20103;-70
2023/09/05 08:05:53;;;;;;;11.05;3.90;;;18.90;99.90;;;;;;5052961;28;20189;-71
2023/09/05 08:08:20;;;;;;;9.07;4.00;;;19.00;99.90;;;;;;5058344;28;20032;-71
2023/09/05 08:10:46;;;;;;;5.82;3.72;;;19.10;99.90;;;;;;5049834;28;20059;-70
2023/09/05 08:13:13;;;;;;;6.95;3.28;;;19.20;99.90;;;;;;5068445;28;20040;-71
2023/09/05 08:15:43;;;;;;;7.35;3.20;;;19.20;99.90;;;;;;5052020;28;20044;-71
2023/09/05 08:18:10;;;;;;;5.60;3.25;;;19.30;99.90;;;;;;5042413;28;20067;-71
2023/09/05 08:20:36;;;;;;;4.18;3.00;;;19.40;99.90;;;;;;5038812;28;20028;-71
2023/09/05 08:23:03;;;;;;;4.95;3.50;;;19.50;99.90;;;;;;5041320;28;22373;-71
2023/09/05 08:25:29;;;;;;;7.55;3.97;;;19.60;99.90;;;;;;5046033;28;20041;-71
2023/09/05 08:27:56;;;;;;;4.28;3.08;;;19.70;99.90;;;;;;5031843;28;20051;-71
2023/09/05 08:30:24;;;;;;;6.45;3.05;;;19.80;99.90;;;;;;5055168;28;20102;-71
2023/09/05 08:32:50;;;;;;;6.05;3.22;;;19.90;99.90;;;;;;5052496;28;20044;-71
2023/09/05 08:35:16;;;;;;;5.30;3.15;;;20.00;99.90;;;;;;5049981;28;20127;-71
2023/09/05 08:37:43;;;;;;;4.88;3.03;;;20.10;99.90;;;;;;5054563;28;20123;-70
2023/09/05 08:40:09;;;;;;;4.47;2.97;;;20.20;99.90;;;;;;5076153;28;20040;-71
2023/09/05 08:42:37;;;;;;;5.22;3.22;;;20.30;99.90;;;;;;5074800;28;20032;-71
2023/09/05 08:45:04;;;;;;;6.82;3.70;;;20.30;99.90;;;;;;5039687;28;20496;-71
2023/09/05 08:47:30;;;;;;;5.80;3.03;;;20.40;99.90;;;;;;5055253;28;20040;-71
2023/09/05 08:50:00;;;;;;;5.15;3.58;;;20.50;99.90;;;;;;5038500;28;20049;-71
2023/09/05 08:52:31;;;;;;;6.03;3.20;;;20.60;99.90;;;;;;5037408;28;20040;-71
2023/09/05 08:54:58;;;;;;;4.85;3.60;;;20.70;99.90;;;;;;5055820;28;20094;-71
2023/09/05 08:57:25;;;;;;;7.35;4.30;;;20.80;99.90;;;;;;5050254;28;20044;-71
2023/09/05 08:59:53;;;;;;;7.68;3.58;;;20.90;99.90;;;;;;5043941;28;20045;-71
2023/09/05 09:02:19;;;;;;;8.35;4.90;;;21.00;99.90;;;;;;5032519;28;20048;-70
2023/09/05 09:04:53;;;;;;;7.38;4.22;;;21.20;99.90;;;;;;5043747;28;20052;-71
2023/09/05 09:07:22;;;;;;;5.32;3.20;;;21.30;99.90;;;;;;5039408;28;20037;-71
2023/09/05 09:09:48;;;;;;;7.22;3.58;;;21.40;99.90;;;;;;5050050;28;20401;-71
2023/09/05 09:12:13;;;;;;;;;;;21.40;99.90;;;;;;5043193;28;20045;-71
2023/09/05 09:14:39;;;;;;;6.35;3.20;;;21.50;99.90;;;;;;5065373;28;19917;-71
2023/09/05 09:17:05;;;;;;;;;;;21.60;99.90;;;;;;5054490;28;20361;-70
2023/09/05 09:19:32;;;;;;;4.97;2.65;;;21.80;99.90;;;;;;5049968;28;19916;-71
2023/09/05 09:22:02;;;;;;;4.07;2.65;;;21.90;99.90;;;;;;5046184;28;20090;-71
2023/09/05 09:24:33;;;;;;;5.15;2.83;;;22.00;99.90;;;;;;5048905;28;20072;-71
2023/09/05 09:27:02;;;;;;;4.20;2.53;;;22.20;99.90;;;;;;5047805;28;20107;-71
2023/09/05 09:29:28;;;;;;;4.53;2.67;;;22.30;99.90;;;;;;5043447;28;20384;-71
2023/09/05 09:32:20;;;;;;;;;;;22.40;99.90;;;;;;5042179;28;20123;-71
2023/09/05 09:34:46;;;;;;;5.15;2.42;;;22.60;99.90;;;;;;5034007;28;19966;-70
2023/09/05 09:37:12;;;;;;;;;;;22.70;99.90;;;;;;5047986;28;20068;-71
2023/09/05 09:39:37;;;;;;;5.43;2.28;;;22.90;99.90;;;;;;5053449;28;19967;-71
2023/09/05 09:42:03;;;;;;;;;;;23.00;99.90;;;;;;5069590;28;20044;-69
2023/09/05 09:44:31;;;;;;;4.35;2.08;;;23.10;99.90;;;;;;5060724;28;19961;-69
2023/09/05 09:46:58;;;;;;;3.65;1.60;;;23.30;99.90;;;;;;5054885;28;20044;-70
2023/09/05 09:49:25;;;;;;;5.13;1.98;;;23.30;99.90;;;;;;5051417;28;20048;-69
2023/09/05 09:51:56;;;;;;;4.47;2.15;;;23.40;99.90;;;;;;5043429;28;20067;-69
2023/09/05 09:54:34;;;;;;;4.32;1.77;;;23.60;99.90;;;;;;5042025;28;20044;-69
2023/09/05 09:57:04;;;;;;;4.00;1.90;;;23.70;99.90;;;;;;5057705;28;20048;-72
2023/09/05 09:59:41;;;;;;;2.85;1.90;;;23.80;99.90;;;;;;5049313;28;20039;-72
2023/09/05 10:02:14;;;;;;;4.50;1.90;;;23.90;99.90;;;;;;5039163;28;20033;-70
2023/09/05 10:04:41;;;;;;;3.17;1.90;;;24.00;99.90;;;;;;5026328;28;20028;-72
2023/09/05 10:07:09;;;;;;;3.13;1.60;;;24.10;99.90;;;;;;5022239;28;20037;-71
2023/09/05 10:09:37;;;;;;;4.20;2.17;;;24.20;99.90;;;;;;5030928;28;20044;-71
2023/09/05 10:12:05;;;;;;;2.95;1.63;;;24.30;99.90;;;;;;5050438;28;20067;-71
2023/09/05 10:14:31;;;;;;;5.07;1.50;;;24.40;99.90;;;;;;5045316;28;20064;-71
2023/09/05 10:16:58;;;;;;;3.28;1.65;;;24.50;99.90;;;;;;5033841;28;20211;-71
2023/09/05 10:19:29;;;;;;;3.95;1.52;;;24.60;99.90;;;;;;5068502;28;20036;-71
2023/09/05 10:21:57;;;;;;;5.18;1.92;;;24.60;99.90;;;;;;5050455;28;20087;-71
2023/09/05 10:24:31;;;;;;;3.35;1.88;;;24.80;99.90;;;;;;5068496;28;20143;-72
2023/09/05 10:26:57;;;;;;;2.65;1.50;;;24.80;99.90;;;;;;5045808;28;20501;-71
2023/09/05 10:29:35;;;;;;;2.78;1.38;;;25.00;99.90;;;;;;5051696;28;20129;-71
2023/09/05 10:32:02;;;;;;;3.63;1.67;;;25.10;99.90;;;;;;5056804;28;20043;-72
2023/09/05 10:34:47;;;;;;;4.15;1.65;;;25.20;99.90;;;;;;5048533;28;20036;-71
2023/09/05 10:37:13;;;;;;;2.58;1.63;;;25.40;99.90;;;;;;5063599;28;20036;-72
2023/09/05 10:39:46;;;;;;;2.50;1.50;;;25.40;99.90;;;;;;5061181;28;20087;-71
2023/09/05 10:42:13;;;;;;;2.70;1.55;;;25.60;99.90;;;;;;5027769;28;20183;-71
2023/09/05 10:44:44;;;;;;;3.05;1.70;;;25.70;99.90;;;;;;5032937;28;20123;-71
2023/09/05 10:47:35;;;;;;;3.22;1.60;;;25.90;99.90;;;;;;5031215;28;20545;-71
2023/09/05 10:50:06;;;;;;;2.35;1.42;;;25.90;99.90;;;;;;5049813;28;20745;-71
2023/09/05 10:52:32;;;;;;;4.63;1.55;;;26.00;99.90;;;;;;5032564;28;20045;-71
2023/09/05 10:54:59;;;;;;;3.55;1.30;;;26.10;99.90;;;;;;5051739;28;20032;-72
2023/09/05 10:57:33;;;;;;;3.80;1.20;;;26.20;99.90;;;;;;5027823;28;20036;-68
2023/09/05 10:59:59;;;;;;;3.47;1.20;;;26.30;99.90;;;;;;5064524;28;20044;-68
2023/09/05 11:02:25;;;;;;;4.60;2.05;;;26.40;99.90;;;;;;5050181;28;20036;-68
2023/09/05 11:04:54;;;;;;;4.05;1.65;;;26.50;99.90;;;;;;5056670;28;20569;-68
2023/09/05 11:07:21;;;;;;;5.40;1.85;;;26.60;99.90;;;;;;5047125;28;20126;-69
2023/09/05 11:09:49;;;;;;;3.72;1.67;;;26.70;99.90;;;;;;5063425;28;20110;-67
2023/09/05 11:12:16;;;;;;;2.42;1.20;;;26.80;99.90;;;;;;5045220;28;20138;-68
2023/09/05 11:14:42;;;;;;;2.50;1.38;;;26.80;99.90;;;;;;5042095;28;20406;-68
2023/09/05 11:17:13;;;;;;;6.50;1.25;;;27.00;99.90;;;;;;5046904;28;20037;-68
2023/09/05 11:19:42;;;;;;;1.33;0.93;;;27.00;99.90;;;;;;5055606;28;20555;-68
2023/09/05 11:22:14;;;;;;;2.05;1.02;;;27.10;99.90;;;;;;5053456;28;20485;-68
2023/09/05 11:24:46;;;;;;;2.33;1.30;;;27.30;99.90;;;;;;5041506;28;20032;-70
2023/09/05 11:27:17;;;;;;;1.67;0.90;;;27.30;99.90;;;;;;5051352;28;20106;-69
2023/09/05 11:29:45;;;;;;;1.70;0.95;;;27.40;99.90;;;;;;5045081;28;20473;-68
2023/09/05 11:32:14;;;;;;;1.65;0.90;;;27.50;99.90;;;;;;5069047;28;20056;-68
2023/09/05 11:34:43;;;;;;;1.83;0.80;;;27.50;99.90;;;;;;5051461;28;20052;-68
2023/09/05 11:37:13;;;;;;;2.25;0.90;;;27.60;99.90;;;;;;5060909;28;20044;-68
2023/09/05 11:39:39;;;;;;;2.95;0.95;;;27.70;99.90;;;;;;5053005;28;20039;-68
2023/09/05 11:42:15;;;;;;;1.80;1.13;;;27.80;99.90;;;;;;5042953;28;20237;-68
2023/09/05 11:44:41;;;;;;;1.73;1.00;;;27.90;99.90;;;;;;5062404;28;20097;-68
2023/09/05 11:47:07;;;;;;;2.22;0.98;;;27.90;99.90;;;;;;5047831;28;20049;-69
2023/09/05 11:49:34;;;;;;;1.65;0.90;;;28.00;99.90;;;;;;5044353;28;20082;-69
2023/09/05 11:52:01;;;;;;;2.75;1.40;;;28.10;99.90;;;;;;5047335;28;20499;-69
2023/09/05 11:54:28;;;;;;;1.45;0.80;;;28.20;99.90;;;;;;5025053;28;20076;-69
2023/09/05 11:56:55;;;;;;;2.38;0.90;;;28.30;99.90;;;;;;5065479;28;20120;-69
2023/09/05 11:59:22;;;;;;;1.80;0.93;;;28.30;99.90;;;;;;5054788;28;20547;-70
2023/09/05 12:01:47;;;;;;;3.10;0.90;;;28.40;99.90;;;;;;5052226;28;20044;-68
2023/09/05 12:04:13;;;;;;;2.50;0.90;;;28.50;99.90;;;;;;5041146;28;20462;-69
2023/09/05 12:06:39;;;;;;;1.73;0.73;;;28.60;99.90;;;;;;5053133;28;20044;-68
2023/09/05 12:09:09;;;;;;;2.08;0.80;;;28.70;99.90;;;;;;5052274;28;20137;-69
2023/09/05 12:11:34;;;;;;;3.05;1.10;;;28.70;99.90;;;;;;5055848;28;20036;-68
2023/09/05 12:14:00;;;;;;;2.90;0.80;;;28.80;99.90;;;;;;5045574;28;20043;-68
2023/09/05 12:16:28;;;;;;;1.63;0.65;;;28.80;99.90;;;;;;5029017;28;20041;-69
2023/09/05 12:19:01;;;;;;;4.70;0.60;;;28.90;99.90;;;;;;5042303;28;20044;-68
2023/09/05 12:21:40;;;;;;;1.48;0.90;;;29.00;99.90;;;;;;5051750;28;20032;-68
2023/09/05 12:24:33;;;;;;;1.00;0.52;;;29.00;99.90;;;;;;5048340;28;20049;-69
2023/09/05 12:26:59;;;;;;;1.48;0.60;;;29.10;99.90;;;;;;5050094;28;20048;-69
2023/09/05 12:29:40;;;;;;;1.10;0.52;;;29.20;99.90;;;;;;5042555;28;20529;-71
2023/09/05 12:32:06;;;;;;;1.55;0.60;;;29.30;99.90;;;;;;5037638;28;21504;-71
2023/09/05 12:34:31;;;;;;;2.05;0.70;;;29.30;99.90;;;;;;5051269;28;20063;-71
2023/09/05 12:36:57;;;;;;;2.00;0.68;;;29.50;99.90;;;;;;5070409;28;20121;-71
2023/09/05 12:39:23;;;;;;;2.78;0.75;;;29.50;99.90;;;;;;5051321;28;20041;-71
2023/09/05 12:41:52;;;;;;;3.17;0.80;;;29.60;99.90;;;;;;5066022;28;20044;-71
2023/09/05 12:44:17;;;;;;;1.45;0.70;;;29.70;99.90;;;;;;5058923;28;20090;-71
2023/09/05 12:46:43;;;;;;;2.38;1.02;;;29.90;99.90;;;;;;5047159;28;20040;-70
2023/09/05 12:49:10;;;;;;;1.50;0.90;;;30.00;99.90;;;;;;5034365;28;20047;-70
2023/09/05 12:51:36;;;;;;;1.48;0.75;;;30.10;99.90;;;;;;5052310;28;20076;-70
2023/09/05 12:54:03;;;;;;;4.25;0.90;;;30.10;99.90;;;;;;5060334;28;20132;-71